Time;durP1;ratioP1;P1;durP2;ratioP2;P2;SDS_P1;SDS_P2;PMS_P1;PMS_P2;Temp;Humidity;BMP_temperature;BMP_pressure;BME280_temperature;BME280_humidity;BME280_pressure;Samples;Min_cycle;Max_cycle;Signal;HPM_P1;HPM_P2
2023/03/10 00:02:03;;;;;;;3.42;0.38;;;;;;;13.82;60.40;97972.31;12856973;23;20026;-66
2023/03/10 00:07:04;;;;;;;4.30;0.50;;;;;;;13.68;60.49;97988.09;12851276;23;20437;-66
2023/03/10 00:12:06;;;;;;;6.78;0.20;;;;;;;13.40;61.11;97985.63;12848502;23;20022;-63
2023/03/10 00:17:07;;;;;;;7.32;0.95;;;;;;;13.36;61.92;97973.72;12847461;23;20029;-65
2023/03/10 00:22:10;;;;;;;3.58;0.43;;;;;;;13.39;61.30;97973.19;12878353;23;20016;-64
2023/03/10 00:27:11;;;;;;;2.33;0.20;;;;;;;13.40;61.29;97956.75;12889328;23;20008;-64
2023/03/10 00:32:12;;;;;;;3.03;0.30;;;;;;;13.48;61.16;97950.91;12902749;23;20011;-64
2023/03/10 00:37:14;;;;;;;1.85;0.45;;;;;;;13.51;61.26;97949.59;12892099;23;20036;-64
2023/03/10 00:42:16;;;;;;;1.73;0.40;;;;;;;13.50;61.62;97950.66;12896117;23;19997;-64
2023/03/10 00:47:17;;;;;;;1.95;0.30;;;;;;;13.20;63.00;97943.81;12898291;22;20011;-65
2023/03/10 00:52:18;;;;;;;1.50;0.20;;;;;;;13.08;63.82;97937.75;12898866;23;20027;-64
2023/03/10 00:57:20;;;;;;;2.20;0.20;;;;;;;13.06;63.96;97931.78;12896645;22;20080;-64
2023/03/10 01:02:21;;;;;;;0.65;0.10;;;;;;;13.10;63.78;97941.00;12900925;22;20013;-65
2023/03/10 01:07:23;;;;;;;0.38;0.20;;;;;;;13.07;64.06;97920.75;12899393;22;20075;-64
2023/03/10 01:12:24;;;;;;;1.15;0.95;;;;;;;12.83;65.12;97919.38;12898649;22;20020;-65
2023/03/10 01:17:25;;;;;;;0.28;0.20;;;;;;;12.71;65.65;97903.31;12893156;23;20012;-66
2023/03/10 01:22:27;;;;;;;0.47;0.20;;;;;;;12.67;65.52;97894.91;12892371;23;20024;-65
2023/03/10 01:27:28;;;;;;;0.30;0.10;;;;;;;12.74;65.91;97891.22;12887726;23;20065;-64
2023/03/10 01:32:29;;;;;;;1.17;0.20;;;;;;;12.75;65.44;97874.78;12889547;23;20021;-64
2023/03/10 01:37:31;;;;;;;2.50;0.30;;;;;;;12.54;66.76;97879.13;12886599;23;20034;-65
2023/03/10 01:42:33;;;;;;;2.20;0.30;;;;;;;12.27;67.50;97879.84;12881781;23;20028;-62
2023/03/10 01:47:35;;;;;;;1.38;0.20;;;;;;;12.16;68.63;97869.97;12877034;23;20025;-63
2023/03/10 01:52:36;;;;;;;0.88;0.40;;;;;;;11.92;69.42;97865.88;12882472;23;20012;-63
2023/03/10 01:57:45;;;;;;;1.95;0.10;;;;;;;11.78;70.20;97843.81;12870198;23;20039;-63
2023/03/10 02:02:55;;;;;;;1.00;0.17;;;;;;;11.76;70.56;97838.69;12858514;23;20017;-64
2023/03/10 02:07:58;;;;;;;0.93;0.20;;;;;;;11.71;70.56;97831.34;12848230;23;20042;-65
2023/03/10 02:12:59;;;;;;;0.57;0.20;;;;;;;11.67;70.83;97824.84;12846655;23;20028;-64
2023/03/10 02:18:04;;;;;;;1.30;0.28;;;;;;;11.62;71.20;97823.94;12843014;23;20110;-64
2023/03/10 02:23:09;;;;;;;0.20;0.10;;;;;;;11.59;71.72;97830.63;12846359;23;20837;-64
2023/03/10 02:28:10;;;;;;;1.58;0.10;;;;;;;11.63;71.20;97815.63;12844636;23;20086;-64
2023/03/10 02:33:30;;;;;;;1.00;0.10;;;;;;;11.74;70.72;97815.78;12847152;23;20062;-63
2023/03/10 02:38:32;;;;;;;0.30;0.10;;;;;;;11.78;70.88;97809.63;12846151;23;20365;-64
2023/03/10 02:43:33;;;;;;;0.47;0.10;;;;;;;11.85;70.74;97814.88;12844592;23;20029;-64
2023/03/10 02:48:37;;;;;;;1.02;0.15;;;;;;;11.93;70.94;97798.31;12842138;23;20051;-65
2023/03/10 02:53:39;;;;;;;0.50;0.50;;;;;;;11.95;71.10;97801.59;12842517;23;20402;-66
2023/03/10 02:58:40;;;;;;;1.08;0.20;;;;;;;12.01;70.44;97797.09;12840938;23;20031;-63
2023/03/10 03:03:42;;;;;;;0.30;0.10;;;;;;;12.10;70.23;97806.34;12842236;23;20029;-62
2023/03/10 03:08:43;;;;;;;0.75;0.20;;;;;;;12.15;70.21;97806.44;12850556;23;20033;-66
2023/03/10 03:13:45;;;;;;;1.55;0.10;;;;;;;12.09;70.69;97797.47;12842696;23;20082;-63
2023/03/10 03:18:46;;;;;;;0.75;0.30;;;;;;;11.95;70.93;97788.13;12840683;23;20020;-65
2023/03/10 03:23:47;;;;;;;0.80;0.15;;;;;;;11.83;71.87;97798.97;12844770;23;20113;-65
2023/03/10 03:28:50;;;;;;;1.00;0.30;;;;;;;11.79;72.24;97803.22;12843498;23;20021;-64
2023/03/10 03:33:52;;;;;;;3.00;0.20;;;;;;;11.69;72.39;97795.81;12841720;23;20513;-63
2023/03/10 03:38:53;;;;;;;4.47;0.93;;;;;;;11.58;73.38;97787.81;12841592;23;20072;-64
2023/03/10 03:43:55;;;;;;;1.75;0.38;;;;;;;11.58;73.60;97793.19;12842597;23;20048;-65
2023/03/10 03:48:56;;;;;;;5.10;0.50;;;;;;;11.46;73.66;97782.53;12839482;23;20078;-67
2023/03/10 03:53:57;;;;;;;1.48;0.55;;;;;;;11.32;74.21;97790.91;12838634;23;20028;-66
2023/03/10 03:58:59;;;;;;;2.85;0.60;;;;;;;11.27;74.58;97798.88;12838485;23;20563;-66
2023/03/10 04:04:00;;;;;;;1.50;0.50;;;;;;;11.17;74.89;97809.47;12837272;23;20020;-64
2023/03/10 04:09:02;;;;;;;1.27;0.40;;;;;;;11.19;75.43;97798.47;12838826;23;20032;-65
2023/03/10 04:14:04;;;;;;;3.92;0.45;;;;;;;11.34;74.78;97792.56;12839981;23;20454;-64
2023/03/10 04:19:06;;;;;;;1.10;0.40;;;;;;;11.31;74.98;97797.38;12839779;23;20017;-64
2023/03/10 04:24:08;;;;;;;3.63;0.50;;;;;;;11.39;74.88;97792.63;12839882;23;20025;-63
2023/03/10 04:29:10;;;;;;;4.38;0.68;;;;;;;11.36;74.65;97796.63;12838529;23;20024;-64
2023/03/10 04:34:11;;;;;;;1.67;0.40;;;;;;;11.39;74.65;97787.25;12839595;23;20025;-64
2023/03/10 04:39:13;;;;;;;0.77;0.20;;;;;;;11.39;74.80;97803.38;12838993;23;20078;-64
2023/03/10 04:44:15;;;;;;;2.10;0.50;;;;;;;11.46;74.59;97807.53;12839609;23;20346;-63
2023/03/10 04:49:31;;;;;;;1.98;0.30;;;;;;;11.53;74.58;97788.53;12839959;23;20021;-64
2023/03/10 04:54:32;;;;;;;2.70;0.60;;;;;;;11.57;74.51;97800.47;12840159;23;20042;-63
2023/03/10 04:59:33;;;;;;;5.30;0.60;;;;;;;11.72;74.01;97783.72;12840066;23;20032;-63
2023/03/10 05:04:35;;;;;;;3.78;0.57;;;;;;;11.84;73.70;97770.16;12839957;23;20488;-63
2023/03/10 05:09:37;;;;;;;2.40;0.40;;;;;;;11.81;73.79;97771.47;12838650;23;20099;-63
2023/03/10 05:14:38;;;;;;;5.50;0.70;;;;;;;11.82;73.72;97769.59;12840939;23;20032;-62
2023/03/10 05:19:40;;;;;;;2.03;0.30;;;;;;;11.83;73.79;97763.16;12845895;23;20016;-64
2023/03/10 05:24:41;;;;;;;2.40;0.30;;;;;;;11.84;73.28;97768.28;12855630;23;20020;-63
2023/03/10 05:29:43;;;;;;;3.35;0.30;;;;;;;11.90;73.03;97753.84;12852031;23;20020;-63
2023/03/10 05:34:44;;;;;;;2.60;0.30;;;;;;;12.03;72.52;97744.59;12847540;23;20024;-64
2023/03/10 05:39:46;;;;;;;2.42;0.40;;;;;;;11.93;73.17;97744.47;12840769;23;20067;-62
2023/03/10 05:44:47;;;;;;;2.95;0.40;;;;;;;11.89;73.24;97754.13;12858315;23;20082;-64
2023/03/10 05:49:49;;;;;;;5.22;0.60;;;;;;;11.67;73.48;97749.47;12868791;23;20335;-65
2023/03/10 05:54:50;;;;;;;7.85;0.60;;;;;;;11.52;74.19;97750.06;12843008;23;20031;-66
2023/03/10 05:59:51;;;;;;;3.80;0.75;;;;;;;11.47;73.92;97743.78;12837997;23;20677;-67
2023/03/10 06:04:53;;;;;;;3.28;0.50;;;;;;;11.46;74.10;97739.47;12837095;23;20684;-66
2023/03/10 06:09:54;;;;;;;5.05;0.73;;;;;;;11.49;74.33;97734.44;12835606;23;20082;-67
2023/03/10 06:14:56;;;;;;;3.17;0.30;;;;;;;11.50;74.34;97751.38;12831509;23;20405;-67
2023/03/10 06:19:57;;;;;;;3.65;0.50;;;;;;;11.46;74.71;97750.25;12805188;23;20801;-67
2023/03/10 06:24:59;;;;;;;4.43;0.40;;;;;;;11.44;74.67;97747.78;12841669;23;20233;-66
2023/03/10 06:30:01;;;;;;;4.72;0.50;;;;;;;11.46;75.38;97751.06;12838239;23;20024;-67
2023/03/10 06:35:03;;;;;;;5.55;0.50;;;;;;;11.31;75.80;97748.97;12843483;23;20020;-67
2023/03/10 06:40:07;;;;;;;2.50;0.43;;;;;;;11.25;75.67;97733.78;12850917;23;20020;-66
2023/03/10 06:45:12;;;;;;;3.17;0.50;;;;;;;11.25;76.13;97736.47;12876387;23;20093;-66
2023/03/10 06:50:13;;;;;;;3.33;0.50;;;;;;;11.18;76.52;97741.22;12888847;23;20012;-66
2023/03/10 06:55:15;;;;;;;5.60;1.13;;;;;;;11.19;76.66;97742.81;12891209;23;20020;-65
2023/03/10 07:00:18;;;;;;;4.45;0.50;;;;;;;11.20;76.60;97740.97;12884635;23;20012;-65
2023/03/10 07:05:21;;;;;;;4.45;0.80;;;;;;;11.23;76.70;97745.84;12892276;23;20012;-66
2023/03/10 07:10:23;;;;;;;3.13;0.40;;;;;;;11.23;76.31;97741.28;12893034;23;20070;-66
2023/03/10 07:15:25;;;;;;;7.05;0.60;;;;;;;11.31;76.02;97745.44;12898200;23;20009;-65
2023/03/10 07:20:26;;;;;;;6.55;0.85;;;;;;;11.40;76.05;97743.97;12891655;23;20030;-65
2023/03/10 07:25:28;;;;;;;2.65;0.60;;;;;;;11.44;75.93;97742.41;12881559;23;20024;-64
2023/03/10 07:30:30;;;;;;;2.95;0.60;;;;;;;11.57;75.86;97730.50;12877069;23;20024;-66
2023/03/10 07:35:31;;;;;;;4.53;0.70;;;;;;;11.66;76.02;97723.63;12879249;23;20265;-66
2023/03/10 07:40:39;;;;;;;3.90;0.50;;;;;;;11.74;75.77;97711.63;12885647;23;20031;-64
2023/03/10 07:45:40;;;;;;;5.43;0.95;;;;;;;11.78;75.75;97717.31;12892808;23;20007;-65
2023/03/10 07:50:41;;;;;;;9.35;1.45;;;;;;;11.84;76.06;97719.03;12888514;23;20065;-65
2023/03/10 07:55:43;;;;;;;5.50;1.08;;;;;;;11.83;75.66;97723.59;12886410;23;20078;-65
2023/03/10 08:00:44;;;;;;;7.03;0.85;;;;;;;11.88;75.71;97717.44;12887568;23;20030;-65
2023/03/10 08:05:46;;;;;;;12.48;0.70;;;;;;;11.81;75.38;97717.66;12883667;23;20080;-63
2023/03/10 08:10:47;;;;;;;4.72;0.52;;;;;;;11.75;75.26;97721.34;12868617;23;20017;-62
2023/03/10 08:15:49;;;;;;;4.63;1.48;;;;;;;11.79;75.46;97721.63;12865510;23;20025;-62
2023/03/10 08:20:50;;;;;;;7.60;1.05;;;;;;;11.80;75.71;97734.03;12866170;23;20458;-61
2023/03/10 08:25:52;;;;;;;5.10;0.57;;;;;;;11.81;75.59;97727.56;12857246;23;20078;-61
2023/03/10 08:30:53;;;;;;;6.50;0.75;;;;;;;11.90;75.10;97742.28;12856079;23;20763;-63
2023/03/10 08:36:09;;;;;;;6.90;0.75;;;;;;;11.86;75.30;97741.13;12862010;23;20035;-63
2023/03/10 08:41:21;;;;;;;6.65;0.73;;;;;;;11.80;74.96;97745.63;12866267;23;20051;-64
2023/03/10 08:46:25;;;;;;;3.10;0.52;;;;;;;11.66;75.51;97738.97;12856810;23;20017;-60
2023/03/10 08:51:27;;;;;;;6.53;0.68;;;;;;;11.59;76.00;97741.00;12843306;23;20035;-63
2023/03/10 08:56:29;;;;;;;8.45;0.57;;;;;;;11.54;75.90;97749.81;12842163;23;20033;-63
2023/03/10 09:01:33;;;;;;;6.35;0.45;;;;;;;11.61;75.82;97742.41;12845717;23;20450;-63
2023/03/10 09:06:35;;;;;;;3.38;0.60;;;;;;;11.68;76.06;97758.38;12842756;23;20457;-64
2023/03/10 09:11:38;;;;;;;5.60;0.60;;;;;;;11.78;75.74;97758.50;12853225;23;20079;-64
2023/03/10 09:16:40;;;;;;;2.65;0.45;;;;;;;11.86;75.27;97766.16;12849135;23;20028;-62
2023/03/10 09:21:41;;;;;;;1.48;0.20;;;;;;;11.98;75.54;97766.06;12850650;23;20088;-61
2023/03/10 09:26:43;;;;;;;2.70;0.30;;;;;;;12.09;74.98;97765.16;12853489;23;20040;-64
2023/03/10 09:31:47;;;;;;;3.45;0.20;;;;;;;12.07;74.69;97780.75;12848525;23;20187;-62
2023/03/10 09:36:48;;;;;;;1.52;0.20;;;;;;;12.04;73.58;97783.09;12842353;23;20026;-60
2023/03/10 09:42:08;;;;;;;1.27;0.20;;;;;;;12.12;72.72;97779.97;12843532;23;20021;-61
2023/03/10 09:47:45;;;;;;;1.20;0.30;;;;;;;12.20;71.80;97784.94;12844590;23;20025;-61
2023/03/10 09:52:56;;;;;;;2.47;0.40;;;;;;;12.39;70.90;97790.03;12842353;23;20021;-59
2023/03/10 09:57:57;;;;;;;3.53;0.30;;;;;;;12.50;70.26;97789.91;12843447;23;20017;-59
2023/03/10 10:03:19;;;;;;;2.75;0.70;;;;;;;12.55;69.28;97789.13;12846876;23;20079;-60
2023/03/10 10:08:28;;;;;;;1.33;0.30;;;;;;;12.72;68.62;97780.13;12848858;23;20075;-60
2023/03/10 10:13:29;;;;;;;1.58;0.52;;;;;;;12.75;68.20;97776.94;12871448;22;20108;-61
2023/03/10 10:18:41;;;;;;;1.85;0.50;;;;;;;12.92;68.03;97761.50;12846820;23;20020;-62
2023/03/10 10:23:46;;;;;;;3.53;0.45;;;;;;;13.01;67.29;97769.91;12854683;23;20031;-60
2023/03/10 10:28:57;;;;;;;3.42;0.47;;;;;;;12.94;66.80;97774.72;12857157;23;20025;-62
2023/03/10 10:34:03;;;;;;;2.13;0.28;;;;;;;12.93;66.25;97771.19;12850955;23;20024;-62
2023/03/10 10:39:24;;;;;;;0.85;0.20;;;;;;;12.87;66.68;97789.22;12852635;23;20028;-62
2023/03/10 10:44:29;;;;;;;3.10;0.20;;;;;;;12.94;66.33;97789.00;12845102;23;20027;-61
2023/03/10 10:49:35;;;;;;;1.27;0.20;;;;;;;13.29;65.64;97782.31;12845518;23;20094;-62
2023/03/10 10:54:50;;;;;;;2.58;0.40;;;;;;;13.35;64.84;97775.09;12839585;23;20345;-61
2023/03/10 10:59:52;;;;;;;0.98;0.30;;;;;;;13.23;64.90;97788.72;12839836;23;20082;-62
2023/03/10 11:04:53;;;;;;;2.08;0.50;;;;;;;13.29;64.76;97782.31;12841642;23;20067;-61
2023/03/10 11:09:56;;;;;;;1.67;0.20;;;;;;;13.51;64.51;97782.25;12842690;23;20025;-65
2023/03/10 11:15:21;;;;;;;1.88;0.30;;;;;;;13.56;64.47;97766.06;12844763;23;20476;-65
2023/03/10 11:20:44;;;;;;;2.63;0.20;;;;;;;13.65;64.03;97764.53;12844363;23;20353;-64
2023/03/10 11:26:22;;;;;;;2.67;0.30;;;;;;;13.56;63.03;97776.06;12843682;23;20029;-64
2023/03/10 11:31:45;;;;;;;1.65;0.20;;;;;;;13.66;63.17;97768.03;12844263;23;20480;-64
2023/03/10 11:36:57;;;;;;;2.47;0.28;;;;;;;13.75;62.53;97769.19;12844779;23;20024;-64
2023/03/10 11:42:05;;;;;;;1.83;0.20;;;;;;;13.81;62.30;97759.22;12843387;23;20024;-63
2023/03/10 11:47:40;;;;;;;0.85;0.10;;;;;;;13.93;62.22;97753.63;12844978;23;20529;-66
2023/03/10 11:52:43;;;;;;;1.48;0.10;;;;;;;13.82;62.60;97753.59;12843966;23;20063;-67
2023/03/10 11:57:49;;;;;;;0.38;0.10;;;;;;;13.76;62.01;97751.09;12848676;23;20017;-67
2023/03/10 12:03:07;;;;;;;1.08;0.10;;;;;;;13.71;62.47;97745.69;12842635;23;20036;-67
2023/03/10 12:08:09;;;;;;;1.27;0.10;;;;;;;13.80;62.27;97744.94;12855808;23;20090;-65
2023/03/10 12:13:24;;;;;;;1.58;0.20;;;;;;;14.01;62.52;97731.53;12847781;23;20016;-64
2023/03/10 12:18:26;;;;;;;0.10;0.10;;;;;;;14.06;62.57;97732.38;12816682;23;20012;-63
2023/03/10 12:23:37;;;;;;;1.33;0.30;;;;;;;13.86;63.49;97743.88;12842145;23;20020;-66
2023/03/10 12:28:39;;;;;;;1.58;0.17;;;;;;;13.66;63.39;97732.94;12841017;23;20024;-66
2023/03/10 12:33:43;;;;;;;0.30;0.10;;;;;;;13.54;63.43;97725.03;12842947;23;20076;-64
2023/03/10 12:39:24;;;;;;;0.70;0.10;;;;;;;13.58;63.16;97715.34;12851070;23;20099;-64
2023/03/10 12:44:48;;;;;;;0.55;0.20;;;;;;;13.79;62.90;97707.38;12845226;23;20027;-66
2023/03/10 12:50:11;;;;;;;2.17;0.10;;;;;;;13.83;62.71;97712.00;12844022;23;20082;-67
2023/03/10 12:55:24;;;;;;;0.73;0.10;;;;;;;13.72;62.86;97701.41;12844498;23;20027;-66
2023/03/10 13:00:32;;;;;;;0.35;0.15;;;;;;;13.55;63.90;97690.78;12865148;23;20020;-66
2023/03/10 13:05:38;;;;;;;1.05;0.63;;;;;;;13.31;64.71;97704.66;12841381;23;20027;-66
2023/03/10 13:10:40;;;;;;;3.65;0.30;;;;;;;13.02;66.08;97702.25;12840590;23;20025;-66
2023/03/10 13:15:41;;;;;;;1.40;0.82;;;;;;;12.69;67.21;97701.41;12845934;23;20074;-66
2023/03/10 13:20:44;;;;;;;1.38;0.10;;;;;;;12.59;67.77;97705.91;12864097;23;20469;-67
2023/03/10 13:25:57;;;;;;;1.75;0.75;;;;;;;12.47;68.67;97704.16;12865111;23;20090;-66
2023/03/10 13:31:17;;;;;;;0.20;0.15;;;;;;;12.12;69.61;97691.13;12864001;23;20028;-67
2023/03/10 13:36:30;;;;;;;0.20;0.10;;;;;;;11.76;71.01;97690.66;12847993;23;20020;-68
2023/03/10 13:41:36;;;;;;;1.40;0.20;;;;;;;11.79;71.33;97694.72;12843166;23;20090;-70
2023/03/10 13:46:37;;;;;;;1.95;0.20;;;;;;;11.79;72.00;97692.03;12840019;23;20047;-70
2023/03/10 13:51:39;;;;;;;1.10;0.30;;;;;;;11.69;72.14;97693.53;12839522;23;20086;-69
2023/03/10 13:56:42;;;;;;;1.73;0.10;;;;;;;11.76;72.68;97703.31;12842969;23;20029;-69
2023/03/10 14:01:52;;;;;;;1.38;0.20;;;;;;;11.74;72.98;97700.84;12862996;23;20025;-69
2023/03/10 14:07:09;;;;;;;0.90;0.25;;;;;;;11.58;73.37;97691.75;12817918;23;20043;-66
2023/03/10 14:12:12;;;;;;;0.60;0.30;;;;;;;11.44;73.96;97675.16;12827920;23;20027;-66
2023/03/10 14:17:33;;;;;;;0.65;0.25;;;;;;;11.40;73.62;97679.41;12848317;23;20025;-66
2023/03/10 14:22:40;;;;;;;1.02;0.22;;;;;;;11.29;74.43;97686.53;12848138;23;20071;-68
2023/03/10 14:27:45;;;;;;;0.75;0.20;;;;;;;11.34;74.63;97679.59;12868766;23;20050;-68
2023/03/10 14:32:46;;;;;;;1.65;0.28;;;;;;;11.27;75.39;97683.25;12837573;23;20041;-69
2023/03/10 14:37:49;;;;;;;2.38;0.32;;;;;;;11.19;75.71;97701.69;12834423;23;20331;-70
2023/03/10 14:42:53;;;;;;;4.50;0.40;;;;;;;11.20;75.92;97700.63;12834257;23;20416;-70
2023/03/10 14:47:57;;;;;;;1.38;0.32;;;;;;;11.05;76.36;97707.38;12839405;23;20028;-72
2023/03/10 14:52:59;;;;;;;1.80;0.70;;;;;;;11.00;76.66;97701.94;12839631;23;20358;-72
2023/03/10 14:58:03;;;;;;;2.05;0.40;;;;;;;10.93;77.36;97711.22;12836753;23;20016;-69
2023/03/10 15:03:04;;;;;;;2.47;0.30;;;;;;;10.93;77.22;97725.47;12839716;23;20052;-69
2023/03/10 15:08:07;;;;;;;0.30;0.17;;;;;;;10.91;78.11;97706.09;12840332;23;20025;-72
2023/03/10 15:13:12;;;;;;;1.58;0.20;;;;;;;10.98;78.04;97714.81;12840040;23;20020;-72
2023/03/10 15:18:17;;;;;;;1.35;0.10;;;;;;;10.90;77.87;97717.91;12837096;23;20104;-71
2023/03/10 15:23:21;;;;;;;0.25;0.10;;;;;;;10.87;77.65;97713.81;12862978;23;20158;-69
2023/03/10 15:28:22;;;;;;;0.80;0.10;;;;;;;10.85;77.28;97740.13;12838455;23;20029;-70
2023/03/10 15:33:24;;;;;;;0.55;0.00;;;;;;;10.70;77.68;97731.78;12841805;23;20012;-66
2023/03/10 15:38:25;;;;;;;0.10;0.00;;;;;;;10.67;76.77;97734.97;12839175;23;20079;-64
2023/03/10 15:43:27;;;;;;;0.15;0.00;;;;;;;10.71;75.64;97746.84;12836863;23;20491;-65
2023/03/10 15:48:28;;;;;;;0.10;0.00;;;;;;;10.76;75.25;97755.00;12837478;23;20043;-64
2023/03/10 15:53:29;;;;;;;1.83;0.30;;;;;;;10.85;74.67;97774.25;12846494;23;20474;-63
2023/03/10 15:58:31;;;;;;;0.00;0.00;;;;;;;10.78;74.53;97765.50;12834216;23;20024;-63
2023/03/10 16:03:36;;;;;;;0.22;0.00;;;;;;;10.77;73.97;97772.75;12834809;23;20016;-65
2023/03/10 16:08:38;;;;;;;0.00;0.00;;;;;;;10.60;73.25;97788.00;12837404;23;20029;-65
2023/03/10 16:13:40;;;;;;;0.80;0.10;;;;;;;10.55;73.09;97810.22;12838813;23;20664;-64
2023/03/10 16:19:05;;;;;;;1.20;0.10;;;;;;;10.35;73.27;97794.53;12842537;23;20028;-64
2023/03/10 16:24:31;;;;;;;0.40;0.20;;;;;;;10.04;74.16;97801.09;12844816;23;20020;-64
2023/03/10 16:56:44;;;;;;;0.45;0.10;;;;;;;9.91;69.66;97869.22;12747752;23;20033;-65
2023/03/10 17:01:46;;;;;;;0.10;0.03;;;;;;;10.02;69.33;97870.28;12749499;23;20021;-63
2023/03/10 17:06:47;;;;;;;0.55;0.17;;;;;;;10.01;68.28;97892.81;12774156;23;20575;-63
2023/03/10 17:11:51;;;;;;;1.45;0.20;;;;;;;10.04;68.06;97895.03;12773681;23;20032;-63
2023/03/10 17:16:55;;;;;;;0.10;0.10;;;;;;;10.01;65.22;97914.28;12771428;23;20091;-68
2023/03/10 17:21:58;;;;;;;3.20;0.52;;;;;;;10.07;65.22;97930.28;12780792;23;20092;-70
2023/03/10 17:26:59;;;;;;;0.08;0.05;;;;;;;10.11;65.06;97946.72;12742135;23;20033;-72
2023/03/10 17:32:01;;;;;;;1.20;0.20;;;;;;;10.11;65.11;97950.25;12776946;23;20013;-69
2023/03/10 17:37:02;;;;;;;0.10;0.10;;;;;;;10.03;64.65;97977.44;12780061;23;20028;-69
2023/03/10 17:42:04;;;;;;;1.70;0.17;;;;;;;9.95;64.41;97972.38;12780017;23;20024;-70
2023/03/10 17:47:05;;;;;;;0.40;0.10;;;;;;;9.78;64.63;97987.53;12809683;23;20025;-69
2023/03/10 17:52:07;;;;;;;1.35;0.10;;;;;;;9.77;63.89;97993.91;12819992;23;20028;-69
2023/03/10 17:57:08;;;;;;;0.65;0.15;;;;;;;9.79;64.10;98000.69;12918830;23;20031;-69
2023/03/10 18:02:11;;;;;;;0.15;0.10;;;;;;;9.73;64.27;97980.16;12893045;22;20140;-68
2023/03/10 18:07:13;;;;;;;1.08;0.10;;;;;;;9.77;64.66;97994.72;12901134;22;20032;-68
2023/03/10 18:12:15;;;;;;;0.63;0.10;;;;;;;9.70;64.33;98010.94;12893355;22;20018;-68
2023/03/10 18:17:16;;;;;;;0.17;0.10;;;;;;;9.53;64.34;98018.78;12875190;23;20024;-69
2023/03/10 18:22:17;;;;;;;0.20;0.10;;;;;;;9.27;64.61;98043.28;12871360;23;20043;-68
2023/03/10 18:27:19;;;;;;;1.17;0.10;;;;;;;8.96;64.41;98069.16;12855038;23;20043;-70
2023/03/10 18:32:20;;;;;;;0.40;0.08;;;;;;;8.83;64.96;98088.88;12854489;23;20025;-68
2023/03/10 18:37:23;;;;;;;0.10;0.00;;;;;;;8.40;65.23;98132.47;12877206;23;20449;-69
2023/03/10 18:42:25;;;;;;;0.30;0.00;;;;;;;8.17;62.44;98164.31;12849929;23;20036;-70
2023/03/10 18:47:27;;;;;;;0.00;0.00;;;;;;;7.80;62.24;98230.94;12860579;23;20440;-70
2023/03/10 18:52:31;;;;;;;0.10;0.10;;;;;;;7.26;58.84;98283.69;12878451;23;20028;-69
2023/03/10 18:57:33;;;;;;;2.00;0.10;;;;;;;6.95;58.67;98290.44;12913988;23;20034;-68
2023/03/10 19:02:34;;;;;;;0.98;0.10;;;;;;;6.64;58.60;98302.50;12906366;23;20039;-68
2023/03/10 19:07:36;;;;;;;0.20;0.20;;;;;;;6.44;59.14;98342.47;12916202;23;20536;-69
2023/03/10 19:12:38;;;;;;;0.30;0.25;;;;;;;6.37;59.46;98354.97;12912890;22;20019;-68
2023/03/10 19:17:39;;;;;;;0.47;0.20;;;;;;;6.25;59.07;98362.69;12907631;23;20058;-69
2023/03/10 19:23:05;;;;;;;0.35;0.25;;;;;;;6.15;58.89;98381.72;12887791;23;20024;-67
2023/03/10 19:28:31;;;;;;;0.63;0.40;;;;;;;6.05;59.03;98397.25;12904199;23;20020;-68
2023/03/10 19:33:56;;;;;;;0.60;0.30;;;;;;;5.83;58.02;98419.66;12911503;23;20417;-68
2023/03/10 19:57:16;;;;;;;2.45;0.90;;;;;;;5.44;58.61;98512.34;10068185;23;20076;-68
2023/03/10 20:02:18;;;;;;;0.90;0.70;;;;;;;5.63;59.39;98547.38;12910895;22;20037;-67
2023/03/10 20:07:19;;;;;;;2.70;1.00;;;;;;;5.53;59.72;98593.03;12930510;23;20024;-68
2023/03/10 20:12:21;;;;;;;1.15;0.82;;;;;;;5.45;59.68;98630.41;12940767;23;20231;-66
2023/03/10 20:17:22;;;;;;;2.55;1.38;;;;;;;5.31;59.88;98634.75;12953505;23;20028;-64
2023/03/10 20:22:24;;;;;;;1.67;1.35;;;;;;;5.49;59.99;98663.66;12931291;23;20030;-67
2023/03/10 20:27:25;;;;;;;3.20;1.23;;;;;;;5.47;60.10;98709.19;12946352;23;20019;-67
2023/03/10 20:32:27;;;;;;;1.90;1.25;;;;;;;5.07;59.65;98726.41;12905134;23;20610;-65
2023/03/10 20:37:28;;;;;;;2.03;0.90;;;;;;;4.97;60.20;98756.75;12901237;23;20024;-67
2023/03/10 21:14:24;;;;;;;1.55;1.15;;;;;;;4.71;61.19;98876.91;12886859;22;20027;-68
2023/03/10 21:19:26;;;;;;;0.93;0.68;;;;;;;4.66;61.05;98899.72;12900202;22;20078;-68
2023/03/10 21:24:27;;;;;;;1.30;0.70;;;;;;;4.71;61.17;98913.34;12901565;22;20090;-68
2023/03/10 21:29:29;;;;;;;1.10;0.50;;;;;;;4.68;60.90;98927.84;12900308;22;20024;-66
2023/03/10 21:34:31;;;;;;;0.90;0.45;;;;;;;4.74;61.18;98934.31;12904521;22;20511;-68
2023/03/10 21:39:32;;;;;;;1.20;0.52;;;;;;;4.80;61.45;98967.38;12907079;22;20055;-66
2023/03/10 21:44:34;;;;;;;1.17;0.40;;;;;;;4.77;61.07;98963.22;12906618;22;20089;-67
2023/03/10 21:49:36;;;;;;;1.75;0.70;;;;;;;4.67;61.11;98979.41;12905577;22;20067;-67
2023/03/10 21:54:37;;;;;;;0.80;0.40;;;;;;;4.63;60.54;98967.44;12880001;22;20094;-66
2023/03/10 21:59:38;;;;;;;0.20;0.17;;;;;;;4.67;60.59;99003.34;12882807;22;20129;-68
2023/03/10 22:04:40;;;;;;;0.52;0.30;;;;;;;4.57;61.32;99000.06;12908983;22;20016;-68
2023/03/10 22:09:41;;;;;;;0.57;0.50;;;;;;;4.62;61.57;99020.84;12908722;22;20044;-67
2023/03/10 22:14:42;;;;;;;0.73;0.60;;;;;;;4.60;61.75;99022.84;12910108;23;20142;-67
2023/03/10 22:19:47;;;;;;;0.75;0.50;;;;;;;4.61;61.78;99024.50;12908930;23;20082;-67
2023/03/10 22:24:49;;;;;;;2.35;0.55;;;;;;;4.68;61.76;99039.63;12909830;23;20028;-67
2023/03/10 22:29:51;;;;;;;0.70;0.50;;;;;;;4.58;62.08;99057.59;12910510;23;20346;-65
2023/03/10 22:34:52;;;;;;;1.38;0.40;;;;;;;4.59;61.15;99071.75;12911110;23;20031;-68
2023/03/10 22:39:54;;;;;;;0.45;0.32;;;;;;;4.54;61.11;99075.75;12881267;23;20395;-66
2023/03/10 22:44:56;;;;;;;0.60;0.50;;;;;;;4.53;61.32;99100.69;12906555;23;20457;-67
2023/03/10 22:49:57;;;;;;;0.70;0.50;;;;;;;4.57;61.67;99117.16;12908636;23;20031;-66
2023/03/10 22:54:59;;;;;;;0.40;0.30;;;;;;;4.53;61.55;99132.63;12882989;23;20028;-67
2023/03/10 23:00:00;;;;;;;0.35;0.20;;;;;;;4.49;61.40;99128.63;12909123;23;20020;-67
2023/03/10 23:05:01;;;;;;;0.45;0.30;;;;;;;4.51;61.09;99139.94;12906549;23;20027;-67
2023/03/10 23:10:06;;;;;;;0.65;0.57;;;;;;;4.67;61.60;99140.94;12907052;23;20031;-67
2023/03/10 23:15:07;;;;;;;0.70;0.50;;;;;;;4.68;61.77;99150.56;12891741;22;20090;-67
2023/03/10 23:20:26;;;;;;;0.60;0.30;;;;;;;4.50;62.75;99146.28;12908932;23;20127;-67
2023/03/10 23:25:31;;;;;;;0.40;0.30;;;;;;;4.32;63.57;99158.88;12908998;23;20147;-67
2023/03/10 23:30:35;;;;;;;0.80;0.30;;;;;;;4.25;64.18;99166.72;12908615;23;20388;-67
2023/03/10 23:35:36;;;;;;;0.57;0.50;;;;;;;4.29;64.16;99169.88;12908743;23;20070;-67
2023/03/10 23:40:38;;;;;;;0.40;0.40;;;;;;;4.20;64.40;99166.34;12907518;23;20028;-67
2023/03/10 23:45:40;;;;;;;0.60;0.30;;;;;;;4.24;64.36;99169.53;12908510;23;20024;-67
2023/03/10 23:50:43;;;;;;;0.68;0.30;;;;;;;4.34;64.08;99156.91;12916550;23;20039;-69
2023/03/10 23:55:46;;;;;;;0.30;0.30;;;;;;;4.37;64.36;99159.25;12907514;23;20689;-68
